Friday, January 19, 2018, 1:45 AM GMT
Back to Local

CYTZ, Toronto Island Airport Automated Reporting Station

Location: , , Canada Lat: 43.633
Local Time: 1:45 AM GMT ( 1:45 GMT) Lon: -79.4
Time Zone: GMT Elev: 252 ft

Show me the last for .
Show Coded

Time T Td Feel RH Dir Speed Gust Alt SLP Vis Weather Sky Remarks
2018-01-19 01:29 27 19 11 73 240° 21 28 29.95 29.96 9 SCT019 OVC110 None
2018-01-19 01:00 25 19 9 79 230° 17 24 29.95 29.97 9 OVC019 None
2018-01-19 00:00 25 18 9 73 240° 17 24 29.98 30.00 9 OVC019 None
2018-01-18 23:00 25 18 12 73 230° 15 - 29.99 30.01 9 OVC021 None
2018-01-18 22:00 25 18 9 73 240° 18 24 30.00 30.02 9 OVC021 None
2018-01-18 21:00 25 18 10 73 240° 17 23 30.00 30.02 9 OVC023 None
2018-01-18 20:00 25 16 12 68 240° 16 - 30.00 30.02 9 OVC023 None
2018-01-18 19:47 25 16 12 68 230° 16 - 30.01 30.02 9 OVC023 None
2018-01-18 19:25 25 16 12 68 240° 16 - 30.01 30.03 9 -SN OVC023 None
2018-01-18 19:00 23 16 10 73 230° 16 - 30.01 30.03 9 OVC023 None
2018-01-18 18:00 23 16 7 73 240° 17 23 30.03 30.05 9 OVC021 None
2018-01-18 17:14 23 16 8 73 230° 20 - 30.04 30.06 9 OVC023 None
2018-01-18 17:00 23 16 9 73 230° 18 - 30.04 30.06 9 -SN OVC023 None
2018-01-18 16:54 23 16 9 73 240° 18 - 30.05 30.06 9 -SN FEW014 OVC023 None
2018-01-18 16:49 23 16 9 73 240° 18 - 30.05 30.06 9 OVC023 None
2018-01-18 16:44 23 16 9 73 240° 17 - 30.05 30.07 9 FEW019 OVC025 None
2018-01-18 16:26 21 16 7 79 230° 17 - 30.06 30.07 9 -SN SCT019 OVC025 None
2018-01-18 16:24 21 16 7 79 230° 17 - 30.06 30.07 9 -SN OVC023 None
2018-01-18 16:23 21 16 6 79 230° 18 - 30.06 30.07 9 OVC023 None
2018-01-18 16:22 21 16 6 79 230° 18 - 30.06 30.07 9 -SN OVC023 None
2018-01-18 16:00 21 16 4 79 230° 18 24 30.06 30.08 8 -SN SCT020 OVC026 None
2018-01-18 15:54 21 14 4 73 240° 18 24 30.07 30.09 8 -SN SCT020 OVC026 None
2018-01-18 15:39 21 14 5 73 240° 17 23 30.07 30.09 9 FEW020 OVC026 None
2018-01-18 15:12 21 14 4 73 240° 21 26 30.06 30.08 9 -SN FEW020 OVC026 None
2018-01-18 15:09 21 14 6 73 240° 20 - 30.06 30.08 9 FEW020 OVC026 None
2018-01-18 15:00 21 14 4 73 240° 20 26 30.06 30.08 9 -SN FEW020 OVC026 None
2018-01-18 14:00 21 12 4 67 240° 18 24 30.05 30.07 9 -SN OVC026 None
2018-01-18 13:16 19 12 1 73 240° 21 26 30.05 30.07 9 -SN OVC026 None
2018-01-18 13:00 19 12 2 73 240° 23 - 30.05 30.06 9 OVC026 None
2018-01-18 12:58 19 12 2 73 240° 23 - 30.05 30.07 9 OVC026 None
2018-01-18 12:47 19 12 3 73 240° 21 - 30.05 30.06 9 -SN OVC026 None
2018-01-18 12:00 21 12 6 67 240° 21 - 30.04 30.06 9 OVC028 None
2018-01-18 11:00 19 12 2 73 250° 24 - 30.04 30.06 9 OVC030 None
2018-01-18 10:00 19 10 1 67 250° 21 26 30.04 30.06 9 BKN032 None
2018-01-18 09:00 21 12 2 67 250° 25 32 30.04 30.06 9 FEW025 None
2018-01-18 08:00 21 14 5 73 230° 22 - 30.05 30.07 9 SCT022 None
2018-01-18 07:00 21 16 3 79 240° 24 31 30.05 30.07 9 SCT020 None
2018-01-18 06:36 21 16 2 79 240° 25 33 30.04 30.06 9 SCT018 None
2018-01-18 06:00 23 18 4 79 230° 29 35 30.05 30.07 9 BKN018 None
2018-01-18 05:46 23 16 4 73 230° 29 37 30.06 30.07 9 BKN018 None
2018-01-18 05:00 23 18 4 79 240° 29 37 30.07 30.09 9 FEW018 None
2018-01-18 04:36 23 18 4 79 240° 29 37 30.08 30.10 9 SCT018 None
2018-01-18 04:00 23 18 4 79 230° 30 37 30.08 30.10 9 OVC018 None
2018-01-18 03:00 23 18 3 79 240° 31 39 30.09 30.11 7 BKN018 None
2018-01-18 02:55 23 18 3 79 230° 33 40 30.10 30.11 7 BKN018 BKN180 None
2018-01-18 02:37 23 18 4 79 230° 31 38 30.11 30.13 9 SCT018 BKN180 None
2018-01-18 02:00 23 18 4 79 230° 30 36 30.13 30.15 9 BKN018 BKN170 None
2018-01-18 01:59 23 18 5 79 230° 30 - 30.13 30.15 9 BKN018 BKN170 None

Support USWX by starting your Amazon purchase here.